createdAt,value
2023-02-26T00:00:38.078Z,990.48
2023-02-26T00:01:40.038Z,990.52
2023-02-26T00:02:38.036Z,990.53
2023-02-26T00:03:38.108Z,990.57
2023-02-26T00:04:37.996Z,990.55
2023-02-26T00:05:37.979Z,990.55
2023-02-26T00:06:37.964Z,990.54
2023-02-26T00:07:37.930Z,990.56
2023-02-26T00:08:37.908Z,990.54
2023-02-26T00:09:37.887Z,990.57
2023-02-26T00:10:37.862Z,990.57
2023-02-26T00:11:37.840Z,990.55
2023-02-26T00:12:37.824Z,990.58
2023-02-26T00:13:40.265Z,990.62
2023-02-26T00:14:38.686Z,990.58
2023-02-26T00:15:40.310Z,990.58
2023-02-26T00:16:37.752Z,990.60
2023-02-26T00:17:39.687Z,990.58
2023-02-26T00:18:42.522Z,990.58
2023-02-26T00:19:44.370Z,990.60
2023-02-26T00:20:40.320Z,990.65
2023-02-26T00:22:44.410Z,990.68
2023-02-26T00:23:37.600Z,990.67
2023-02-26T00:24:37.569Z,990.62
2023-02-26T00:25:37.539Z,990.69
2023-02-26T00:26:37.535Z,990.68
2023-02-26T00:27:37.497Z,990.68
2023-02-26T00:28:37.499Z,990.71
2023-02-26T00:29:37.455Z,990.68
2023-02-26T00:30:37.447Z,990.69
2023-02-26T00:31:37.441Z,990.75
2023-02-26T00:32:37.469Z,990.72
2023-02-26T00:33:37.365Z,990.71
2023-02-26T00:34:37.350Z,990.73
2023-02-26T00:35:37.334Z,990.71
2023-02-26T00:36:37.333Z,990.76
2023-02-26T00:37:37.284Z,990.74
2023-02-26T00:38:37.300Z,990.73
2023-02-26T00:39:37.250Z,990.71
2023-02-26T00:40:37.223Z,990.69
2023-02-26T00:41:37.240Z,990.72
2023-02-26T00:42:37.177Z,990.73
2023-02-26T00:43:37.162Z,990.75
2023-02-26T00:44:37.130Z,990.72
2023-02-26T00:45:37.105Z,990.74
2023-02-26T00:46:37.098Z,990.74
2023-02-26T00:47:37.103Z,990.76
2023-02-26T00:48:37.043Z,990.71
2023-02-26T00:49:37.020Z,990.72
2023-02-26T00:50:37.003Z,990.68
2023-02-26T00:51:37.008Z,990.70
2023-02-26T00:52:36.965Z,990.71
2023-02-26T00:53:36.940Z,990.66
2023-02-26T00:54:36.952Z,990.69
2023-02-26T00:55:36.893Z,990.64
2023-02-26T00:56:36.868Z,990.68
2023-02-26T00:57:36.850Z,990.69
2023-02-26T00:58:36.826Z,990.72
2023-02-26T00:59:36.802Z,990.70
2023-02-26T01:00:36.786Z,990.72
2023-02-26T01:01:36.820Z,990.68
2023-02-26T01:02:36.750Z,990.70
2023-02-26T01:03:36.754Z,990.68
2023-02-26T01:04:36.708Z,990.77
2023-02-26T01:05:36.679Z,990.81
2023-02-26T01:06:36.657Z,990.79
2023-02-26T01:07:36.629Z,990.81
2023-02-26T01:08:36.611Z,990.87
2023-02-26T01:09:36.587Z,990.86
2023-02-26T01:10:36.570Z,990.86
2023-02-26T01:11:36.559Z,990.83
2023-02-26T01:12:36.522Z,990.86
2023-02-26T01:13:36.503Z,990.84
2023-02-26T01:14:36.480Z,990.82
2023-02-26T01:15:36.489Z,990.87
2023-02-26T01:16:36.434Z,990.83
2023-02-26T01:17:36.409Z,990.86
2023-02-26T01:18:36.420Z,990.85
2023-02-26T01:19:36.370Z,990.83
2023-02-26T01:20:36.349Z,990.86
2023-02-26T01:21:36.329Z,990.87
2023-02-26T01:22:36.357Z,990.87
2023-02-26T01:23:36.277Z,990.85
2023-02-26T01:24:36.266Z,990.86
2023-02-26T01:25:36.242Z,990.85
2023-02-26T01:26:36.216Z,990.89
2023-02-26T01:27:36.195Z,990.90
2023-02-26T01:28:36.176Z,990.91
2023-02-26T01:29:36.160Z,990.94
2023-02-26T01:30:36.130Z,990.94
2023-02-26T01:31:36.210Z,990.93
2023-02-26T01:32:36.111Z,990.88
2023-02-26T01:33:36.067Z,990.91
2023-02-26T01:34:36.040Z,990.91
2023-02-26T01:35:36.021Z,990.89
2023-02-26T01:36:36.010Z,990.89
2023-02-26T01:37:35.975Z,990.92
2023-02-26T01:38:35.982Z,990.92
2023-02-26T01:39:35.954Z,990.91
2023-02-26T01:40:35.928Z,990.93
2023-02-26T01:41:35.911Z,990.99
2023-02-26T01:42:35.878Z,990.93
2023-02-26T01:43:35.854Z,990.93
2023-02-26T01:44:35.830Z,990.97
2023-02-26T01:45:35.809Z,990.98
2023-02-26T01:46:35.830Z,990.97
2023-02-26T01:47:35.769Z,990.96
2023-02-26T01:48:35.751Z,990.98
2023-02-26T01:49:35.720Z,991.01
2023-02-26T01:50:35.698Z,991.02
2023-02-26T01:51:35.687Z,990.99
2023-02-26T01:52:35.679Z,991.03
2023-02-26T01:53:35.643Z,991.03
2023-02-26T01:54:35.693Z,990.99
2023-02-26T01:55:35.598Z,991.05
2023-02-26T01:56:35.568Z,991.03
2023-02-26T01:57:35.548Z,991.06
2023-02-26T01:58:35.530Z,991.04
2023-02-26T01:59:35.511Z,991.08
2023-02-26T02:00:35.490Z,991.12
2023-02-26T02:01:35.466Z,991.08
2023-02-26T02:02:35.512Z,991.06
2023-02-26T02:03:35.535Z,991.09
2023-02-26T02:04:35.402Z,991.09
2023-02-26T02:05:35.382Z,991.07
2023-02-26T02:06:35.357Z,991.07
2023-02-26T02:07:35.342Z,991.07
2023-02-26T02:08:35.336Z,991.08
2023-02-26T02:09:35.300Z,991.08
2023-02-26T02:10:35.275Z,991.09
2023-02-26T02:11:35.254Z,991.09
2023-02-26T02:12:35.231Z,991.12
2023-02-26T02:13:35.210Z,991.10
2023-02-26T02:14:35.179Z,991.10
2023-02-26T02:15:35.226Z,991.12
2023-02-26T02:16:35.191Z,991.13
2023-02-26T02:17:35.120Z,991.10
2023-02-26T02:18:35.100Z,991.11
2023-02-26T02:19:35.118Z,991.13
2023-02-26T02:20:35.052Z,991.16
2023-02-26T02:21:35.037Z,991.12
2023-02-26T02:22:35.039Z,991.09
2023-02-26T02:23:34.992Z,991.17
2023-02-26T02:24:34.964Z,991.15
2023-02-26T02:25:34.941Z,991.18
2023-02-26T02:26:34.938Z,991.20
2023-02-26T02:27:34.900Z,991.20
2023-02-26T02:28:34.888Z,991.23
2023-02-26T02:29:34.859Z,991.21
2023-02-26T02:30:34.925Z,991.20
2023-02-26T02:31:34.917Z,991.20
2023-02-26T02:32:34.962Z,991.21
2023-02-26T02:33:34.808Z,991.24
2023-02-26T02:34:34.745Z,991.23
2023-02-26T02:35:34.721Z,991.22
2023-02-26T02:36:34.711Z,991.28
2023-02-26T02:37:34.697Z,991.27
2023-02-26T02:38:34.658Z,991.27
2023-02-26T02:39:34.643Z,991.28
2023-02-26T02:40:34.634Z,991.28
2023-02-26T02:41:34.603Z,991.29
2023-02-26T02:42:34.611Z,991.31
2023-02-26T02:43:34.560Z,991.34
2023-02-26T02:44:34.546Z,991.34
2023-02-26T02:45:34.538Z,991.38
2023-02-26T02:46:34.512Z,991.41
2023-02-26T02:47:34.469Z,991.37
2023-02-26T02:48:34.456Z,991.40
2023-02-26T02:49:34.430Z,991.37
2023-02-26T02:50:34.400Z,991.40
2023-02-26T02:51:34.411Z,991.34
2023-02-26T02:52:34.361Z,991.38
2023-02-26T02:53:34.340Z,991.38
2023-02-26T02:54:34.328Z,991.35
2023-02-26T02:55:34.304Z,991.37
2023-02-26T02:56:34.273Z,991.37
2023-02-26T02:57:34.263Z,991.30
2023-02-26T02:58:34.237Z,991.32
2023-02-26T02:59:34.209Z,991.34
2023-02-26T03:00:34.212Z,991.34
2023-02-26T03:01:34.162Z,991.33
2023-02-26T03:02:34.177Z,991.33
2023-02-26T03:03:34.118Z,991.35
2023-02-26T03:04:34.099Z,991.37
2023-02-26T03:05:34.075Z,991.40
2023-02-26T03:06:34.363Z,991.37
2023-02-26T03:07:34.032Z,991.44
2023-02-26T03:08:34.019Z,991.41
2023-02-26T03:09:33.995Z,991.44
2023-02-26T03:10:33.972Z,991.42
2023-02-26T03:11:33.948Z,991.45
2023-02-26T03:12:33.927Z,991.48
2023-02-26T03:13:33.914Z,991.43
2023-02-26T03:14:33.883Z,991.43
2023-02-26T03:15:33.897Z,991.49
2023-02-26T03:16:33.864Z,991.46
2023-02-26T03:17:33.813Z,991.50
2023-02-26T03:18:33.817Z,991.46
2023-02-26T03:19:33.771Z,991.49
2023-02-26T03:20:33.755Z,991.48
2023-02-26T03:21:33.741Z,991.48
2023-02-26T03:22:33.710Z,991.52
2023-02-26T03:23:33.691Z,991.54
2023-02-26T03:24:33.668Z,991.53
2023-02-26T03:25:33.656Z,991.53
2023-02-26T03:26:33.642Z,991.53
2023-02-26T03:27:33.608Z,991.58
2023-02-26T03:28:33.599Z,991.50
2023-02-26T03:29:33.614Z,991.57
2023-02-26T03:30:33.565Z,991.59
2023-02-26T03:31:33.579Z,991.59
2023-02-26T03:32:33.570Z,991.62
2023-02-26T03:33:33.578Z,991.69
2023-02-26T03:34:33.457Z,991.66
2023-02-26T03:35:33.429Z,991.69
2023-02-26T03:36:33.426Z,991.69
2023-02-26T03:37:33.387Z,991.71
2023-02-26T03:38:33.360Z,991.72
2023-02-26T03:39:33.343Z,991.73
2023-02-26T03:40:33.335Z,991.75
2023-02-26T03:41:33.304Z,991.75
2023-02-26T03:42:33.282Z,991.76
2023-02-26T03:43:33.256Z,991.78
2023-02-26T03:44:33.232Z,991.81
2023-02-26T03:45:33.220Z,991.80
2023-02-26T03:46:33.220Z,991.83
2023-02-26T03:47:33.166Z,991.80
2023-02-26T03:48:33.156Z,991.84
2023-02-26T03:49:33.130Z,991.82
2023-02-26T03:50:33.112Z,991.82
2023-02-26T03:51:33.083Z,991.85
2023-02-26T03:52:33.078Z,991.84
2023-02-26T03:53:33.039Z,991.83
2023-02-26T03:54:33.016Z,991.82
2023-02-26T03:55:32.993Z,991.84
2023-02-26T03:56:32.975Z,991.86
2023-02-26T03:57:32.950Z,991.86
2023-02-26T03:58:32.927Z,991.89
2023-02-26T03:59:32.909Z,991.91
2023-02-26T04:00:32.892Z,991.88
2023-02-26T04:01:32.877Z,991.90
2023-02-26T04:02:32.919Z,991.89
2023-02-26T04:03:32.824Z,991.92
2023-02-26T04:04:32.827Z,991.92
2023-02-26T04:05:32.778Z,991.92
2023-02-26T04:06:32.747Z,991.93
2023-02-26T04:07:32.742Z,991.98
2023-02-26T04:08:32.712Z,991.97
2023-02-26T04:09:32.690Z,992.01
2023-02-26T04:10:32.671Z,992.03
2023-02-26T04:11:32.645Z,992.04
2023-02-26T04:12:32.685Z,992.07
2023-02-26T04:13:32.603Z,992.08
2023-02-26T04:14:32.576Z,992.08
2023-02-26T04:15:32.561Z,992.08
2023-02-26T04:16:32.600Z,992.05
2023-02-26T04:17:32.510Z,992.10
2023-02-26T04:18:32.564Z,992.12
2023-02-26T04:19:32.462Z,992.11
2023-02-26T04:20:32.452Z,992.16
2023-02-26T04:21:32.428Z,992.15
2023-02-26T04:22:32.397Z,992.19
2023-02-26T04:23:32.373Z,992.22
2023-02-26T04:24:32.354Z,992.23
2023-02-26T04:25:32.334Z,992.24
2023-02-26T04:26:32.330Z,992.22
2023-02-26T04:27:32.288Z,992.26
2023-02-26T04:28:32.259Z,992.26
2023-02-26T04:29:32.242Z,992.26
2023-02-26T04:30:32.234Z,992.33
2023-02-26T04:31:32.224Z,992.27
2023-02-26T04:32:32.212Z,992.30
2023-02-26T04:33:32.152Z,992.27
2023-02-26T04:34:32.147Z,992.27
2023-02-26T04:35:32.110Z,992.24
2023-02-26T04:36:32.099Z,992.32
2023-02-26T04:37:32.092Z,992.30
2023-02-26T04:38:32.066Z,992.30
2023-02-26T04:39:32.018Z,992.29
2023-02-26T04:40:31.989Z,992.27
2023-02-26T04:41:32.000Z,992.30
2023-02-26T04:42:31.949Z,992.28
2023-02-26T04:43:31.928Z,992.32
2023-02-26T04:44:31.908Z,992.29
2023-02-26T04:45:31.901Z,992.32
2023-02-26T04:46:31.890Z,992.33
2023-02-26T04:47:31.854Z,992.37
2023-02-26T04:48:31.841Z,992.36
2023-02-26T04:49:31.799Z,992.40
2023-02-26T04:50:32.521Z,992.45
2023-02-26T04:51:31.750Z,992.45
2023-02-26T04:52:31.726Z,992.43
2023-02-26T04:53:31.726Z,992.46
2023-02-26T04:54:31.680Z,992.47
2023-02-26T04:55:31.668Z,992.46
2023-02-26T04:56:31.642Z,992.45
2023-02-26T04:57:31.616Z,992.44
2023-02-26T04:58:31.592Z,992.46
2023-02-26T04:59:31.572Z,992.44
2023-02-26T05:00:31.546Z,992.43
2023-02-26T05:01:31.553Z,992.45
2023-02-26T05:02:31.502Z,992.46
2023-02-26T05:03:31.482Z,992.49
2023-02-26T05:04:31.503Z,992.51
2023-02-26T05:05:31.436Z,992.49
2023-02-26T05:06:31.418Z,992.48
2023-02-26T05:07:31.395Z,992.48
2023-02-26T05:08:31.436Z,992.54
2023-02-26T05:09:31.349Z,992.47
2023-02-26T05:10:31.327Z,992.47
2023-02-26T05:11:31.308Z,992.53
2023-02-26T05:12:31.317Z,992.50
2023-02-26T05:13:31.280Z,992.53
2023-02-26T05:14:31.236Z,992.55
2023-02-26T05:15:31.216Z,992.55
2023-02-26T05:16:31.246Z,992.56
2023-02-26T05:17:31.174Z,992.58
2023-02-26T05:18:31.157Z,992.58
2023-02-26T05:19:31.132Z,992.64
2023-02-26T05:20:31.138Z,992.62
2023-02-26T05:21:31.117Z,992.61
2023-02-26T05:22:31.070Z,992.64
2023-02-26T05:23:31.062Z,992.59
2023-02-26T05:24:31.024Z,992.62
2023-02-26T05:25:31.011Z,992.61
2023-02-26T05:26:30.980Z,992.63
2023-02-26T05:27:30.974Z,992.62
2023-02-26T05:28:30.955Z,992.60
2023-02-26T05:29:30.911Z,992.59
2023-02-26T05:30:30.914Z,992.57
2023-02-26T05:31:30.950Z,992.57
2023-02-26T05:32:30.849Z,992.60
2023-02-26T05:33:30.845Z,992.63
2023-02-26T05:34:30.799Z,992.61
2023-02-26T05:35:30.774Z,992.66
2023-02-26T05:36:30.799Z,992.65
2023-02-26T05:37:30.768Z,992.66
2023-02-26T05:38:30.711Z,992.67
2023-02-26T05:39:30.691Z,992.72
2023-02-26T05:40:30.682Z,992.69
2023-02-26T05:41:30.651Z,992.75
2023-02-26T05:42:30.655Z,992.76
2023-02-26T05:43:30.647Z,992.83
2023-02-26T05:44:30.582Z,992.80
2023-02-26T05:45:30.577Z,992.80
2023-02-26T05:46:30.711Z,992.82
2023-02-26T05:47:30.511Z,992.83
2023-02-26T05:48:30.491Z,992.84
2023-02-26T05:49:30.463Z,992.89
2023-02-26T05:50:30.461Z,992.91
2023-02-26T05:51:30.432Z,992.96
2023-02-26T05:52:30.444Z,992.95
2023-02-26T05:53:30.371Z,992.98
2023-02-26T05:54:30.357Z,992.99
2023-02-26T05:55:30.359Z,992.98
2023-02-26T05:56:30.310Z,993.03
2023-02-26T05:57:30.313Z,993.04
2023-02-26T05:58:30.260Z,993.02
2023-02-26T05:59:30.267Z,993.04
2023-02-26T06:00:30.212Z,993.10
2023-02-26T06:01:30.185Z,993.06
2023-02-26T06:02:30.213Z,993.12
2023-02-26T06:03:30.164Z,993.12
2023-02-26T06:04:30.133Z,993.11
2023-02-26T06:05:30.105Z,993.12
2023-02-26T06:06:30.093Z,993.10
2023-02-26T06:07:30.070Z,993.13
2023-02-26T06:08:30.034Z,993.18
2023-02-26T06:09:30.036Z,993.18
2023-02-26T06:10:30.058Z,993.22
2023-02-26T06:11:31.303Z,993.21
2023-02-26T06:12:29.951Z,993.18
2023-02-26T06:13:29.913Z,993.21
2023-02-26T06:14:29.896Z,993.25
2023-02-26T06:15:29.872Z,993.27
2023-02-26T06:16:29.934Z,993.32
2023-02-26T06:17:29.845Z,993.32
2023-02-26T06:18:29.805Z,993.32
2023-02-26T06:19:29.783Z,993.27
2023-02-26T06:20:29.763Z,993.29
2023-02-26T06:21:29.742Z,993.30
2023-02-26T06:22:29.712Z,993.34
2023-02-26T06:23:29.721Z,993.33
2023-02-26T06:24:29.674Z,993.37
2023-02-26T06:25:29.646Z,993.38
2023-02-26T06:26:29.901Z,993.45
2023-02-26T06:27:29.608Z,993.43
2023-02-26T06:28:29.585Z,993.47
2023-02-26T06:29:29.567Z,993.50
2023-02-26T06:30:29.574Z,993.48
2023-02-26T06:31:29.614Z,993.52
2023-02-26T06:32:30.752Z,993.53
2023-02-26T06:33:29.472Z,993.51
2023-02-26T06:34:29.453Z,993.55
2023-02-26T06:35:29.431Z,993.59
2023-02-26T06:36:29.423Z,993.63
2023-02-26T06:37:29.383Z,993.68
2023-02-26T06:38:29.386Z,993.66
2023-02-26T06:39:29.342Z,993.65
2023-02-26T06:40:29.328Z,993.64
2023-02-26T06:41:29.298Z,993.63
2023-02-26T06:42:29.286Z,993.71
2023-02-26T06:43:29.250Z,993.74
2023-02-26T06:44:29.238Z,993.76
2023-02-26T06:45:29.212Z,993.75
2023-02-26T06:46:29.188Z,993.76
2023-02-26T06:47:29.167Z,993.76
2023-02-26T06:48:29.213Z,993.78
2023-02-26T06:49:29.123Z,993.79
2023-02-26T06:50:29.100Z,993.80
2023-02-26T06:51:29.078Z,993.82
2023-02-26T06:52:29.058Z,993.89
2023-02-26T06:53:29.032Z,993.89
2023-02-26T06:54:29.017Z,993.88
2023-02-26T06:55:28.991Z,993.92
2023-02-26T06:56:29.409Z,993.92
2023-02-26T06:57:28.946Z,993.93
2023-02-26T07:00:02.357Z,993.98
2023-02-26T07:01:02.386Z,994.00
2023-02-26T14:42:34.075Z,997.26
2023-02-26T14:43:34.018Z,997.29
2023-02-26T22:08:22.776Z,1001.21
2023-02-26T22:09:22.731Z,1001.24
2023-02-26T22:11:26.960Z,1001.14
2023-02-26T22:12:26.657Z,1001.12
